createdAt,value
2022-11-24T00:01:07.438Z,88.60
2022-11-24T00:03:39.705Z,88.65
2022-11-24T00:06:16.196Z,88.69
2022-11-24T00:08:48.271Z,88.80
2022-11-24T00:11:25.996Z,88.81
2022-11-24T00:13:58.644Z,89.00
2022-11-24T00:16:35.433Z,88.97
2022-11-24T00:19:09.318Z,88.93
2022-11-24T00:21:41.268Z,88.91
2022-11-24T00:24:13.229Z,88.94
2022-11-24T00:26:45.191Z,88.79
2022-11-24T00:29:17.166Z,89.02
2022-11-24T00:31:49.101Z,88.99
2022-11-24T00:34:21.098Z,88.99
2022-11-24T00:36:53.005Z,89.28
2022-11-24T00:39:25.924Z,89.28
2022-11-24T00:41:57.855Z,89.37
2022-11-24T00:44:30.054Z,89.28
2022-11-24T00:47:02.137Z,89.44
2022-11-24T00:49:34.217Z,89.59
2022-11-24T00:52:06.371Z,89.65
2022-11-24T00:54:38.320Z,89.72
2022-11-24T00:57:10.379Z,89.96
2022-11-24T00:59:42.285Z,90.07
2022-11-24T01:02:14.232Z,90.44
2022-11-24T01:04:46.310Z,90.34
2022-11-24T01:07:18.273Z,90.45
2022-11-24T01:09:50.322Z,90.82
2022-11-24T01:12:22.255Z,90.87
2022-11-24T01:14:54.320Z,90.81
2022-11-24T01:17:26.942Z,91.32
2022-11-24T01:19:59.003Z,91.20
2022-11-24T01:22:31.015Z,91.48
2022-11-24T01:25:03.154Z,91.61
2022-11-24T01:27:35.347Z,92.03
2022-11-24T01:30:08.304Z,91.88
2022-11-24T01:32:40.283Z,92.13
2022-11-24T01:35:12.195Z,92.01
2022-11-24T01:37:44.343Z,92.00
2022-11-24T01:40:16.478Z,92.04
2022-11-24T01:42:50.662Z,92.31
2022-11-24T01:45:40.762Z,92.52
2022-11-24T01:48:27.484Z,92.79
2022-11-24T01:51:24.389Z,92.66
2022-11-24T01:54:09.423Z,92.75
2022-11-24T01:56:44.235Z,92.46
2022-11-24T01:59:17.802Z,92.46
2022-11-24T02:01:51.204Z,92.64
2022-11-24T02:04:26.406Z,92.55
2022-11-24T02:06:59.979Z,92.62
2022-11-24T02:09:43.813Z,92.94
2022-11-24T02:12:15.935Z,92.70
2022-11-24T02:14:48.168Z,93.01
2022-11-24T02:17:20.268Z,92.93
2022-11-24T02:20:00.007Z,93.00
2022-11-24T02:23:02.918Z,93.27
2022-11-24T02:25:46.469Z,93.08
2022-11-24T02:28:20.359Z,93.22
2022-11-24T02:30:53.038Z,93.20
2022-11-24T02:33:26.099Z,92.81
2022-11-24T02:35:58.281Z,93.15
2022-11-24T02:38:35.056Z,93.01
2022-11-24T02:41:11.448Z,93.15
2022-11-24T02:43:48.617Z,93.12
2022-11-24T02:46:21.477Z,93.13
2022-11-24T02:48:53.563Z,93.08
2022-11-24T02:51:25.608Z,93.08
2022-11-24T02:53:57.641Z,93.26
2022-11-24T02:56:29.569Z,93.12
2022-11-24T02:59:01.656Z,93.26
2022-11-24T03:01:33.671Z,93.56
2022-11-24T03:04:05.815Z,93.26
2022-11-24T03:06:38.113Z,93.38
2022-11-24T03:09:11.417Z,93.60
2022-11-24T03:11:43.409Z,93.41
2022-11-24T03:14:15.519Z,93.53
2022-11-24T03:16:47.466Z,93.52
2022-11-24T03:19:19.464Z,93.35
2022-11-24T03:21:51.557Z,93.41
2022-11-24T03:24:23.592Z,93.60
2022-11-24T03:26:55.556Z,93.63
2022-11-24T03:29:27.651Z,93.52
2022-11-24T03:31:59.703Z,93.72
2022-11-24T03:34:33.151Z,93.68
2022-11-24T03:37:05.354Z,93.92
2022-11-24T03:39:37.242Z,93.96
2022-11-24T03:42:09.239Z,93.55
2022-11-24T03:44:41.690Z,93.77
2022-11-24T03:47:13.687Z,93.61
2022-11-24T03:49:45.789Z,93.63
2022-11-24T03:52:17.935Z,93.39
2022-11-24T03:54:49.829Z,93.46
2022-11-24T03:57:21.852Z,93.58
2022-11-24T03:59:53.923Z,93.50
2022-11-24T04:02:25.897Z,93.51
2022-11-24T04:04:59.156Z,93.29
2022-11-24T04:07:31.137Z,93.34
2022-11-24T04:10:03.359Z,93.42
2022-11-24T04:12:44.495Z,93.28
2022-11-24T04:15:18.819Z,93.08
2022-11-24T04:17:51.053Z,93.10
2022-11-24T04:20:23.287Z,92.94
2022-11-24T04:22:55.379Z,92.69
2022-11-24T04:25:27.397Z,92.79
2022-11-24T04:27:59.339Z,92.43
2022-11-24T04:30:31.356Z,92.68
2022-11-24T04:33:03.353Z,92.63
2022-11-24T04:35:35.420Z,92.42
2022-11-24T04:38:07.527Z,92.67
2022-11-24T04:40:39.438Z,92.49
2022-11-24T04:43:12.143Z,92.45
2022-11-24T04:45:44.095Z,92.58
2022-11-24T04:48:15.944Z,92.45
2022-11-24T04:50:48.152Z,92.70
2022-11-24T04:53:20.303Z,92.66
2022-11-24T04:55:52.200Z,92.65
2022-11-24T04:58:24.134Z,92.59
2022-11-24T05:00:56.051Z,92.62
2022-11-24T05:03:27.986Z,92.52
2022-11-24T05:06:00.113Z,92.68
2022-11-24T05:08:32.258Z,92.82
2022-11-24T05:11:05.842Z,92.64
2022-11-24T05:13:37.653Z,92.52
2022-11-24T05:16:09.630Z,92.53
2022-11-24T05:18:41.630Z,92.76
2022-11-24T05:21:13.494Z,92.84
2022-11-24T05:23:45.631Z,92.80
2022-11-24T05:26:17.481Z,92.82
2022-11-24T05:28:49.275Z,92.59
2022-11-24T05:31:21.197Z,92.71
2022-11-24T05:33:53.089Z,92.70
2022-11-24T05:36:43.661Z,92.51
2022-11-24T05:39:15.493Z,92.55
2022-11-24T05:41:47.418Z,92.62
2022-11-24T05:44:19.241Z,92.60
2022-11-24T05:46:51.370Z,92.65
2022-11-24T05:49:23.206Z,92.74
2022-11-24T05:51:55.176Z,92.66
2022-11-24T05:54:27.055Z,92.77
2022-11-24T05:56:59.069Z,92.86
2022-11-24T05:59:30.939Z,92.89
2022-11-24T06:02:03.459Z,92.58
2022-11-24T06:04:37.080Z,92.60
2022-11-24T06:07:10.499Z,92.73
2022-11-24T06:09:45.304Z,92.87
2022-11-24T06:12:17.364Z,92.53
2022-11-24T06:14:49.185Z,92.83
2022-11-24T06:17:20.995Z,92.77
2022-11-24T06:19:52.855Z,92.67
2022-11-24T06:22:24.886Z,92.83
2022-11-24T06:24:56.771Z,92.99
2022-11-24T06:27:28.808Z,93.01
2022-11-24T06:30:00.759Z,92.77
2022-11-24T06:32:32.741Z,92.70
2022-11-24T06:35:04.885Z,92.76
2022-11-24T06:37:37.358Z,92.75
2022-11-24T06:40:09.749Z,92.70
2022-11-24T06:42:41.695Z,92.80
2022-11-24T06:45:13.595Z,92.89
2022-11-24T06:47:45.777Z,92.97
2022-11-24T06:50:17.707Z,92.91
2022-11-24T06:52:49.649Z,92.92
2022-11-24T06:55:21.476Z,93.04
2022-11-24T06:57:53.332Z,93.19
2022-11-24T07:00:25.262Z,93.13
2022-11-24T07:02:58.554Z,93.07
2022-11-24T07:05:30.701Z,93.24
2022-11-24T07:08:02.562Z,93.38
2022-11-24T07:10:34.498Z,93.43
2022-11-24T07:13:09.198Z,93.45
2022-11-24T07:15:41.038Z,93.78
2022-11-24T07:18:12.865Z,93.66
2022-11-24T07:20:44.805Z,93.80
2022-11-24T07:23:16.621Z,93.66
2022-11-24T07:25:48.594Z,93.51
2022-11-24T07:28:20.395Z,93.81
2022-11-24T07:30:52.422Z,93.78
2022-11-24T07:33:27.812Z,93.91
2022-11-24T07:36:00.448Z,93.91
2022-11-24T07:38:33.175Z,93.98
2022-11-24T07:41:08.293Z,93.86
2022-11-24T07:43:40.348Z,94.01
2022-11-24T07:46:13.903Z,94.11
2022-11-24T07:48:46.396Z,94.33
2022-11-24T07:51:18.336Z,94.14
2022-11-24T07:53:50.163Z,94.38
2022-11-24T07:56:21.940Z,94.31
2022-11-24T07:58:53.855Z,94.23
2022-11-24T08:01:25.852Z,94.39
2022-11-24T08:03:57.767Z,94.39
2022-11-24T08:06:37.499Z,94.81
2022-11-24T08:09:12.633Z,94.49
2022-11-24T08:11:44.691Z,94.63
2022-11-24T08:14:16.702Z,94.86
2022-11-24T08:16:48.641Z,94.87
2022-11-24T08:19:21.924Z,94.64
2022-11-24T08:21:53.763Z,94.43
2022-11-24T08:24:27.111Z,94.48
2022-11-24T08:26:59.469Z,94.35
2022-11-24T08:29:31.815Z,94.41
2022-11-24T08:32:03.998Z,94.51
2022-11-24T08:34:36.044Z,94.28
2022-11-24T08:37:08.129Z,94.26
2022-11-24T08:39:40.010Z,93.87
2022-11-24T08:42:11.940Z,93.84
2022-11-24T08:44:43.888Z,93.96
2022-11-24T08:47:16.146Z,94.05
2022-11-24T08:49:48.018Z,93.76
2022-11-24T08:52:19.823Z,93.85
2022-11-24T08:54:51.706Z,93.58
2022-11-24T08:57:24.687Z,93.66
2022-11-24T08:59:56.647Z,93.79
2022-11-24T09:02:28.715Z,93.49
2022-11-24T09:05:00.613Z,93.38
2022-11-24T09:07:32.845Z,93.45
2022-11-24T09:10:05.141Z,93.37
2022-11-24T09:12:37.044Z,93.27
2022-11-24T09:15:09.105Z,93.23
2022-11-24T09:17:41.026Z,92.84
2022-11-24T09:20:12.938Z,92.68
2022-11-24T09:22:44.916Z,92.66
2022-11-24T09:25:17.281Z,92.86
2022-11-24T09:27:50.547Z,92.38
2022-11-24T09:30:23.210Z,92.56
2022-11-24T09:32:58.201Z,92.31
2022-11-24T09:35:30.039Z,92.22
2022-11-24T09:38:02.146Z,92.19
2022-11-24T09:40:34.078Z,92.04
2022-11-24T09:43:12.859Z,92.19
2022-11-24T09:46:06.196Z,92.02
2022-11-24T09:48:40.946Z,91.83
2022-11-24T09:51:14.453Z,91.90
2022-11-24T09:53:53.611Z,91.65
2022-11-24T09:56:28.534Z,91.61
2022-11-24T09:59:03.768Z,91.30
2022-11-24T10:01:37.332Z,91.36
2022-11-24T10:04:22.914Z,91.14
2022-11-24T10:07:05.963Z,91.33
2022-11-24T10:09:37.740Z,91.16
2022-11-24T10:12:38.039Z,90.54
2022-11-24T10:15:33.889Z,90.65
2022-11-24T10:18:42.506Z,90.33
2022-11-24T10:21:45.204Z,90.08
2022-11-24T10:24:33.111Z,90.22
2022-11-24T10:27:17.412Z,90.37
2022-11-24T10:29:51.967Z,90.16
2022-11-24T10:32:25.783Z,90.23
2022-11-24T10:35:00.990Z,90.32
2022-11-24T10:37:36.024Z,90.60
2022-11-24T10:40:49.152Z,90.30
2022-11-24T10:43:18.435Z,90.43
2022-11-24T10:45:50.323Z,90.61
2022-11-24T10:48:25.500Z,90.62
2022-11-24T10:51:34.881Z,89.95
2022-11-24T10:54:16.496Z,90.28
2022-11-24T10:56:51.375Z,90.54
2022-11-24T10:59:30.689Z,90.13
2022-11-24T11:02:14.321Z,90.05
2022-11-24T11:04:46.268Z,90.14
2022-11-24T11:07:21.239Z,89.93
2022-11-24T11:10:20.473Z,89.60
2022-11-24T11:12:52.556Z,89.90
2022-11-24T11:15:31.323Z,89.68
2022-11-24T11:18:04.255Z,89.83
2022-11-24T11:20:36.660Z,89.50
2022-11-24T11:23:20.559Z,89.34
2022-11-24T11:26:21.434Z,89.17
2022-11-24T11:35:17.336Z,89.33
2022-11-24T11:37:49.858Z,89.06
2022-11-24T11:40:27.355Z,89.34
2022-11-24T11:43:04.005Z,89.29
2022-11-24T11:45:37.405Z,89.51
2022-11-24T11:48:37.004Z,89.34
2022-11-24T11:51:45.290Z,89.24
2022-11-24T11:54:26.566Z,89.05
2022-11-24T11:57:16.398Z,88.41
2022-11-24T12:00:03.624Z,88.95
2022-11-24T12:02:58.505Z,88.56
2022-11-24T12:05:47.590Z,87.74
2022-11-24T12:08:29.396Z,87.62
2022-11-24T12:11:42.433Z,86.91
2022-11-24T12:14:52.045Z,86.81
2022-11-24T12:17:35.265Z,86.57
2022-11-24T12:20:19.212Z,86.05
2022-11-24T12:23:11.181Z,86.89
2022-11-24T12:25:49.801Z,86.23
2022-11-24T12:28:49.440Z,86.47
2022-11-24T12:31:33.230Z,86.65
2022-11-24T12:34:23.293Z,85.63
2022-11-24T12:37:18.642Z,85.20
2022-11-24T12:40:02.371Z,85.21
2022-11-24T12:42:57.528Z,85.36
2022-11-24T12:45:37.835Z,85.18
2022-11-24T12:48:18.507Z,85.55
2022-11-24T12:50:52.244Z,85.43
2022-11-24T12:53:31.101Z,84.83
2022-11-24T12:56:09.862Z,84.63
2022-11-24T12:58:55.780Z,84.22
2022-11-24T13:01:38.706Z,84.05
2022-11-24T13:04:30.730Z,83.80
2022-11-24T13:07:15.476Z,83.70
2022-11-24T13:10:46.560Z,83.52
2022-11-24T13:13:16.472Z,84.34
2022-11-24T13:18:53.343Z,83.66
2022-11-24T13:21:30.859Z,83.47
2022-11-24T13:24:20.726Z,83.26
2022-11-24T13:27:15.383Z,82.68
2022-11-24T13:29:48.821Z,83.40
2022-11-24T13:32:23.627Z,83.65
2022-11-24T13:35:03.269Z,82.72
2022-11-24T13:37:36.550Z,83.15
2022-11-24T13:40:11.323Z,82.72
2022-11-24T13:43:04.090Z,81.92
2022-11-24T13:45:38.893Z,82.69
2022-11-24T13:48:19.808Z,82.41
2022-11-24T13:50:55.084Z,82.84
2022-11-24T13:53:28.761Z,82.74
2022-11-24T13:56:11.433Z,82.67
2022-11-24T13:58:45.418Z,82.68
2022-11-24T14:01:19.509Z,82.77
2022-11-24T14:04:28.681Z,82.86
2022-11-24T14:06:52.244Z,83.03
2022-11-24T14:09:26.990Z,82.94
2022-11-24T14:12:20.706Z,82.94
2022-11-24T14:14:55.707Z,82.84
2022-11-24T14:17:28.708Z,83.12
2022-11-24T14:20:17.006Z,82.81
2022-11-24T14:22:48.865Z,83.03
2022-11-24T14:25:30.157Z,82.87
2022-11-24T14:28:02.347Z,83.30
2022-11-24T14:30:34.276Z,83.15
2022-11-24T14:33:12.161Z,82.99
2022-11-24T14:35:45.912Z,83.23
2022-11-24T14:38:17.868Z,83.26
2022-11-24T14:40:51.867Z,83.31
2022-11-24T14:43:29.643Z,83.30
2022-11-24T14:46:12.191Z,83.26
2022-11-24T14:48:51.689Z,83.18
2022-11-24T14:51:34.642Z,83.12
2022-11-24T14:54:14.925Z,83.18
2022-11-24T14:56:58.557Z,83.25
2022-11-24T14:59:39.472Z,83.12
2022-11-24T15:02:44.617Z,82.33
2022-11-24T15:05:16.915Z,82.74
2022-11-24T15:07:50.649Z,82.75
2022-11-24T15:10:35.442Z,82.52
2022-11-24T15:13:22.388Z,82.63
2022-11-24T15:16:02.835Z,82.50
2022-11-24T15:18:45.188Z,82.41
2022-11-24T15:21:30.484Z,82.14
2022-11-24T15:24:20.431Z,81.91
2022-11-24T15:27:00.066Z,82.20
2022-11-24T15:29:31.974Z,82.42
2022-11-24T15:32:14.104Z,82.35
2022-11-24T15:34:46.056Z,82.43
2022-11-24T15:37:17.964Z,82.47
2022-11-24T15:39:50.052Z,82.81
2022-11-24T15:42:21.902Z,83.06
2022-11-24T15:44:53.774Z,82.86
2022-11-24T15:47:25.607Z,82.98
2022-11-24T15:49:57.530Z,83.09
2022-11-24T15:52:30.477Z,83.06
2022-11-24T15:55:02.379Z,83.00
2022-11-24T15:57:34.249Z,83.15
2022-11-24T16:00:06.826Z,83.19
2022-11-24T16:02:44.079Z,83.18
2022-11-24T16:05:16.981Z,83.15
2022-11-24T16:07:49.082Z,83.10
2022-11-24T16:10:26.211Z,83.05
2022-11-24T16:12:58.172Z,82.95
2022-11-24T16:15:30.144Z,82.96
2022-11-24T16:18:03.569Z,83.00
2022-11-24T16:20:36.126Z,83.24
2022-11-24T16:23:08.121Z,83.12
2022-11-24T16:25:39.933Z,83.16
2022-11-24T16:28:11.859Z,83.43
2022-11-24T16:30:48.532Z,83.55
2022-11-24T16:33:20.476Z,83.72
2022-11-24T16:35:52.333Z,83.77
2022-11-24T16:38:24.349Z,84.03
2022-11-24T16:40:56.836Z,84.32
2022-11-24T16:43:30.175Z,84.34
2022-11-24T16:46:17.294Z,84.96
2022-11-24T16:48:51.372Z,84.64
2022-11-24T16:51:23.785Z,84.77
2022-11-24T16:53:59.825Z,85.41
2022-11-24T16:56:32.005Z,85.36
2022-11-24T16:59:04.680Z,85.49
2022-11-24T17:01:37.227Z,85.71
2022-11-24T17:04:12.596Z,85.80
2022-11-24T17:06:44.808Z,86.08
2022-11-24T17:09:17.641Z,86.16
2022-11-24T17:11:49.539Z,86.31
2022-11-24T17:14:21.368Z,86.49
2022-11-24T17:16:53.212Z,86.63
2022-11-24T17:19:25.363Z,87.03
2022-11-24T17:21:57.720Z,86.97
2022-11-24T17:24:29.612Z,87.12
2022-11-24T17:27:01.516Z,87.16
2022-11-24T17:29:33.478Z,87.34
2022-11-24T17:32:05.592Z,87.34
2022-11-24T17:34:37.576Z,87.55
2022-11-24T17:37:09.440Z,87.54
2022-11-24T17:39:42.398Z,87.63
2022-11-24T17:42:14.338Z,87.55
2022-11-24T17:44:46.247Z,87.86
2022-11-24T17:47:18.107Z,87.85
2022-11-24T17:49:49.934Z,87.82
2022-11-24T17:52:21.880Z,87.74
2022-11-24T17:54:53.681Z,87.95
2022-11-24T17:57:26.274Z,87.77
2022-11-24T17:59:58.118Z,88.06
2022-11-24T18:02:30.144Z,87.91
2022-11-24T18:05:01.977Z,87.75
2022-11-24T18:07:36.536Z,87.96
2022-11-24T18:10:08.949Z,87.89
2022-11-24T18:12:41.090Z,87.95
2022-11-24T18:15:12.942Z,87.92
2022-11-24T18:17:44.763Z,87.79
2022-11-24T18:20:16.687Z,87.96
2022-11-24T18:23:05.938Z,87.90
2022-11-24T18:25:38.134Z,87.65
2022-11-24T18:28:09.932Z,87.82
2022-11-24T18:30:41.752Z,87.82
2022-11-24T18:33:13.803Z,87.87
2022-11-24T18:36:07.001Z,87.65
2022-11-24T18:38:38.912Z,87.54
2022-11-24T18:41:12.889Z,87.55
2022-11-24T18:43:44.862Z,87.38
2022-11-24T18:46:17.606Z,87.30
2022-11-24T18:48:51.914Z,87.54
2022-11-24T18:51:23.793Z,87.39
2022-11-24T18:53:57.856Z,87.27
2022-11-24T18:56:30.119Z,87.50
2022-11-24T18:59:02.031Z,87.36
2022-11-24T19:01:34.067Z,87.40
2022-11-24T19:04:05.868Z,87.34
2022-11-24T19:06:38.036Z,87.38
2022-11-24T19:09:18.394Z,87.41
2022-11-24T19:11:50.519Z,87.48
2022-11-24T19:14:22.422Z,87.54
2022-11-24T19:16:55.117Z,87.24
2022-11-24T19:19:28.876Z,87.43
2022-11-24T19:22:01.186Z,87.28
2022-11-24T19:24:33.315Z,87.42
2022-11-24T19:27:05.370Z,87.54
2022-11-24T19:29:42.853Z,87.60
2022-11-24T19:32:15.337Z,87.70
2022-11-24T19:34:47.156Z,87.54
2022-11-24T19:37:19.022Z,87.59
2022-11-24T19:39:50.921Z,87.70
2022-11-24T19:42:22.762Z,88.05
2022-11-24T19:44:56.736Z,87.59
2022-11-24T19:47:29.050Z,87.84
2022-11-24T19:50:02.140Z,87.75
2022-11-24T19:52:35.729Z,87.94
2022-11-24T19:55:07.804Z,88.06
2022-11-24T19:57:39.682Z,87.88
2022-11-24T20:00:12.328Z,87.88
2022-11-24T20:02:44.236Z,87.98
2022-11-24T20:05:16.208Z,88.31
2022-11-24T20:07:48.099Z,88.24
2022-11-24T20:10:20.103Z,88.27
2022-11-24T20:12:51.927Z,88.24
2022-11-24T20:15:23.690Z,88.49
2022-11-24T20:17:55.570Z,88.47
2022-11-24T20:20:27.455Z,88.12
2022-11-24T20:22:59.500Z,88.28
2022-11-24T20:25:31.405Z,88.03
2022-11-24T20:28:03.427Z,88.06
2022-11-24T20:30:35.305Z,88.01
2022-11-24T20:33:07.088Z,88.00
2022-11-24T20:35:38.929Z,88.16
2022-11-24T20:38:11.885Z,87.97
2022-11-24T20:40:43.747Z,88.13
2022-11-24T20:43:15.620Z,87.96
2022-11-24T20:45:47.420Z,88.06
2022-11-24T20:48:19.297Z,87.98
2022-11-24T20:50:51.585Z,88.06
2022-11-24T20:53:23.777Z,87.95
2022-11-24T20:56:06.112Z,88.19
2022-11-24T20:58:39.141Z,88.28
2022-11-24T21:01:13.548Z,88.32
2022-11-24T21:03:46.657Z,88.39
2022-11-24T21:06:18.481Z,88.42
2022-11-24T21:08:50.930Z,88.46
2022-11-24T21:11:23.483Z,88.63
2022-11-24T21:13:55.864Z,88.55
2022-11-24T21:16:30.501Z,88.46
2022-11-24T21:19:06.039Z,88.92
2022-11-24T21:21:38.511Z,88.69
2022-11-24T21:24:23.429Z,88.83
2022-11-24T21:26:55.234Z,88.67
2022-11-24T21:29:27.111Z,88.60
2022-11-24T21:31:58.969Z,88.85
2022-11-24T21:34:30.875Z,88.87
2022-11-24T21:37:02.708Z,88.96
2022-11-24T21:39:36.422Z,89.00
2022-11-24T21:42:08.259Z,88.99
2022-11-24T21:44:40.131Z,89.04
2022-11-24T21:47:12.221Z,88.91
2022-11-24T21:49:44.372Z,89.06
2022-11-24T21:52:16.181Z,89.36
2022-11-24T21:54:48.008Z,89.39
2022-11-24T21:57:19.858Z,89.36
2022-11-24T21:59:52.214Z,89.29
2022-11-24T22:02:24.121Z,89.52
2022-11-24T22:04:55.996Z,89.48
2022-11-24T22:07:32.316Z,89.84
2022-11-24T22:10:04.728Z,89.76
2022-11-24T22:12:36.606Z,89.87
2022-11-24T22:15:09.071Z,89.86
2022-11-24T22:17:40.887Z,89.85
2022-11-24T22:20:12.851Z,90.30
2022-11-24T22:22:44.821Z,90.20
2022-11-24T22:25:16.785Z,90.32
2022-11-24T22:27:48.671Z,90.48
2022-11-24T22:30:20.488Z,90.59
2022-11-24T22:32:53.638Z,90.75
2022-11-24T22:35:25.499Z,90.81
2022-11-24T22:37:57.319Z,90.63
2022-11-24T22:40:29.319Z,90.71
2022-11-24T22:43:01.238Z,90.81
2022-11-24T22:45:35.223Z,91.12
2022-11-24T22:48:07.043Z,91.14
2022-11-24T22:50:38.826Z,91.18
2022-11-24T22:53:10.718Z,91.15
2022-11-24T22:55:42.555Z,91.07
2022-11-24T22:58:14.395Z,91.15
2022-11-24T23:00:46.214Z,91.10
2022-11-24T23:03:18.263Z,90.99
2022-11-24T23:05:50.268Z,91.19
2022-11-24T23:08:22.081Z,91.30
2022-11-24T23:11:07.787Z,91.44
2022-11-24T23:13:40.149Z,91.20
2022-11-24T23:16:14.443Z,91.18
2022-11-24T23:18:52.405Z,91.22
2022-11-24T23:21:28.041Z,91.16
2022-11-24T23:24:01.800Z,91.09
2022-11-24T23:26:37.303Z,91.18
2022-11-24T23:29:10.156Z,91.01
2022-11-24T23:31:42.303Z,91.14
2022-11-24T23:34:14.281Z,91.04
2022-11-24T23:36:46.206Z,90.96
2022-11-24T23:39:18.119Z,90.82
2022-11-24T23:41:49.926Z,90.78
2022-11-24T23:44:22.048Z,90.91
2022-11-24T23:46:54.112Z,91.00
2022-11-24T23:49:25.959Z,91.16
2022-11-24T23:51:57.811Z,91.28
2022-11-24T23:54:29.599Z,91.40
2022-11-24T23:57:01.436Z,91.33
2022-11-24T23:59:33.334Z,91.43
